Wheatland, Pennsylvania
Current Conditions -  °F | °C
As of 2:51 AM on Friday 28 Nov 2014 (Local Time) from KYNG Reporting Station
Light Snow Light Snow  
Wind Chill: 19°   Ceiling: 4500
Heat Index: 25°   Visibility: 9mi
Dew Point: 21°   Wind: 5mph
Humidity: 85%   Direction: 270°W
Pressure: 30.22"   Gusts: NA
Location:  41.2°N, 80.5°W
Report Text: KYNG 280751Z 27004KT 9SM -SN FEW007 SCT014 OVC045 M04/M06 A3022 RMK AO2 SLP250 P0000 T10391061
Loading
Personal Weather Stations






























Interactive Weather Map New forecast layout! Learn more

10-Day Weather Forecast

Advertisements
Track Severe Weather on mobile